SKSP/ADZ METAR and TAF weather

Enter ICAO airport designator
Station Type Date Time Source
SKSP METAR 2024/07/24 11:00 UTC NOAA

SKSP 241100Z 07011G21KT 050V110 9999 SCT016 29/26 Q1012


Station Type Date Time Source
SKSP Decoded METAR 2024/07/24 11:00 UTC NOAA

San Andres Isla / Sesquicentenario, Colombia (SKSP) 12-35N 081-43W 6M
Jul 24, 2024 - 07:00 AM EDT / 2024.07.24 1100 UTC
Wind: from the ENE (070 degrees) at 13 MPH (11 KT) gusting to 24 MPH (21 KT) (direction variable):0
Visibility: greater than 7 mile(s):0
Sky conditions: partly cloudy
Temperature: 84 F (29 C)
Dew Point: 78 F (26 C)
Relative Humidity: 83%
Pressure (altimeter): 29.88 in. Hg (1012 hPa)
ob: SKSP 241100Z 07011G21KT 050V110 9999 SCT016 29/26 Q1012
cycle: 11

Station Type Date Time Source
SKSP TAF 2024/07/24 12:44 UTC NOAA